Time;durP1;ratioP1;P1;durP2;ratioP2;P2;SDS_P1;SDS_P2;PMS_P1;PMS_P2;Temp;Humidity;BMP_temperature;BMP_pressure;BME280_temperature;BME280_humidity;BME280_pressure;Samples;Min_cycle;Max_cycle;Signal;HPM_P1;HPM_P2
2022/12/04 00:01:08;;;;;;;51.27;19.70;;;;;;;1.41;99.12;101689.34;5094674;28;20428;-71
2022/12/04 00:03:35;;;;;;;55.40;19.67;;;;;;;1.43;98.99;101692.63;5093607;28;20456;-71
2022/12/04 00:06:03;;;;;;;52.23;22.30;;;;;;;1.39;99.37;101697.56;5094404;28;20567;-71
2022/12/04 00:08:30;;;;;;;62.83;22.67;;;;;;;1.35;99.83;101696.34;5093131;28;20869;-71
2022/12/04 00:10:56;;;;;;;64.33;23.40;;;;;;;1.37;100.00;101694.28;5094414;28;20448;-71
2022/12/04 00:13:23;;;;;;;59.80;22.80;;;;;;;1.42;99.98;101699.81;5093461;28;20539;-70
2022/12/04 00:15:50;;;;;;;48.83;19.90;;;;;;;1.42;99.59;101701.69;5094304;28;20432;-70
2022/12/04 00:18:18;;;;;;;55.80;21.57;;;;;;;1.38;100.00;101695.94;5092112;28;20478;-73
2022/12/04 00:20:44;;;;;;;63.50;21.63;;;;;;;1.40;99.06;101703.72;5093700;28;20458;-72
2022/12/04 00:23:11;;;;;;;45.03;19.00;;;;;;;1.37;99.87;101698.78;5093302;28;20551;-72
2022/12/04 00:25:37;;;;;;;61.03;21.67;;;;;;;1.42;100.00;101691.81;5093790;28;20516;-72
2022/12/04 00:28:04;;;;;;;49.97;20.33;;;;;;;1.47;100.00;101685.84;5093071;28;20476;-73
2022/12/04 00:30:31;;;;;;;58.07;21.80;;;;;;;1.51;100.00;101682.53;5094048;28;20544;-72
2022/12/04 00:32:57;;;;;;;59.87;23.00;;;;;;;1.54;100.00;101683.94;5093064;28;20463;-72
2022/12/04 00:35:26;;;;;;;46.53;20.77;;;;;;;1.59;100.00;101677.94;5093709;28;20472;-72
2022/12/04 00:37:53;;;;;;;55.30;19.67;;;;;;;1.63;99.79;101679.97;5092642;28;20567;-72
2022/12/04 00:40:19;;;;;;;41.17;18.27;;;;;;;1.66;99.75;101679.56;5092136;28;20453;-72
2022/12/04 00:42:46;;;;;;;45.77;20.20;;;;;;;1.65;98.99;101693.94;5092851;28;20514;-72
2022/12/04 00:45:12;;;;;;;59.93;23.13;;;;;;;1.69;99.11;101689.00;5093553;28;20488;-72
2022/12/04 00:47:39;;;;;;;61.30;21.10;;;;;;;1.63;98.20;101687.97;5092688;28;20476;-72
2022/12/04 00:50:07;;;;;;;53.07;22.10;;;;;;;1.57;98.28;101680.03;5092599;28;20466;-72
2022/12/04 00:52:35;;;;;;;63.43;22.70;;;;;;;1.52;98.96;101681.47;5093746;28;20531;-72
2022/12/04 00:55:01;;;;;;;54.30;21.43;;;;;;;1.48;97.73;101679.47;5092716;28;20463;-72
2022/12/04 00:57:28;;;;;;;53.00;21.67;;;;;;;1.49;97.74;101678.41;5092559;28;20488;-72
2022/12/04 00:59:54;;;;;;;58.77;21.07;;;;;;;1.45;98.68;101674.53;5092506;28;20484;-71
2022/12/04 01:02:21;;;;;;;50.23;21.07;;;;;;;1.52;98.98;101678.81;5093516;28;20455;-72
2022/12/04 01:04:48;;;;;;;44.93;20.27;;;;;;;1.52;98.99;101676.16;5093049;28;20844;-72
2022/12/04 01:07:14;;;;;;;52.60;19.03;;;;;;;1.57;98.12;101680.84;5094016;28;20486;-72
2022/12/04 01:09:42;;;;;;;48.03;19.70;;;;;;;1.50;98.22;101672.03;5091612;28;20459;-73
2022/12/04 01:12:09;;;;;;;61.77;21.30;;;;;;;1.48;98.14;101674.13;5092660;28;20470;-73
2022/12/04 01:14:35;;;;;;;47.53;21.17;;;;;;;1.45;98.37;101683.34;5093117;28;20436;-71
2022/12/04 01:17:02;;;;;;;51.97;20.77;;;;;;;1.50;98.39;101678.19;5091980;28;20508;-73
2022/12/04 01:19:29;;;;;;;43.87;18.37;;;;;;;1.48;98.54;101684.78;5093116;28;20454;-73
2022/12/04 01:21:55;;;;;;;48.23;20.40;;;;;;;1.46;99.18;101678.84;5092234;28;20459;-72
2022/12/04 01:24:22;;;;;;;55.60;21.13;;;;;;;1.42;99.13;101677.66;5093234;28;20472;-72
2022/12/04 01:26:50;;;;;;;54.20;19.97;;;;;;;1.45;99.05;101680.69;5092404;28;20560;-73
2022/12/04 01:29:16;;;;;;;41.73;19.10;;;;;;;1.40;98.95;101671.69;5092934;28;20971;-72
2022/12/04 01:31:43;;;;;;;56.27;22.30;;;;;;;1.44;99.04;101670.22;5093545;28;20494;-72
2022/12/04 01:34:09;;;;;;;50.27;20.70;;;;;;;1.44;99.04;101672.91;5096256;28;20492;-73
2022/12/04 01:36:36;;;;;;;67.70;23.87;;;;;;;1.44;99.05;101673.72;5097365;28;20459;-73
2022/12/04 01:39:03;;;;;;;61.00;22.30;;;;;;;1.49;99.30;101681.09;5096411;28;20465;-73
2022/12/04 01:41:30;;;;;;;59.93;22.03;;;;;;;1.52;99.08;101676.16;5097333;28;20443;-73
2022/12/04 01:44:16;;;;;;;56.97;21.27;;;;;;;1.51;99.21;101673.69;5096307;28;20456;-72
2022/12/04 01:46:44;;;;;;;58.53;21.10;;;;;;;1.50;99.13;101680.03;5096836;28;20570;-73
2022/12/04 01:49:14;;;;;;;67.27;23.73;;;;;;;1.48;99.34;101671.44;5096150;28;20511;-73
2022/12/04 01:51:44;;;;;;;56.30;21.13;;;;;;;1.48;99.60;101669.59;5097088;28;20446;-73
2022/12/04 01:54:17;;;;;;;56.37;21.83;;;;;;;1.40;99.90;101666.34;5097082;28;20871;-71
2022/12/04 01:56:48;;;;;;;48.33;19.60;;;;;;;1.44;100.00;101662.22;5092869;28;20569;-70
2022/12/04 01:59:21;;;;;;;56.07;24.20;;;;;;;1.43;100.00;101657.94;5097041;28;20435;-71
2022/12/04 02:01:53;;;;;;;46.43;19.57;;;;;;;1.55;100.00;101658.03;5094971;28;20547;-71
2022/12/04 02:04:20;;;;;;;67.07;23.07;;;;;;;1.49;100.00;101662.41;5096907;28;20424;-71
2022/12/04 02:06:47;;;;;;;64.07;23.67;;;;;;;1.50;100.00;101661.34;5095400;28;20575;-71
2022/12/04 02:09:14;;;;;;;56.87;22.60;;;;;;;1.44;100.00;101655.03;5096464;28;20448;-71
2022/12/04 02:11:46;;;;;;;51.20;20.83;;;;;;;1.36;100.00;101649.13;5095742;28;20496;-71
2022/12/04 02:14:24;;;;;;;56.27;22.00;;;;;;;1.39;100.00;101654.84;5096687;28;20428;-72
2022/12/04 02:17:01;;;;;;;74.00;23.20;;;;;;;1.39;100.00;101654.03;5095228;28;20555;-70
2022/12/04 02:19:52;;;;;;;68.87;25.60;;;;;;;1.34;100.00;101643.19;5095403;28;20456;-71
2022/12/04 02:22:30;;;;;;;59.90;20.80;;;;;;;1.39;100.00;101646.03;5096566;28;20427;-71
2022/12/04 02:25:05;;;;;;;55.90;22.90;;;;;;;1.40;100.00;101637.81;5095542;28;20524;-71
2022/12/04 02:27:59;;;;;;;58.10;21.17;;;;;;;1.36;100.00;101638.44;5095934;28;20835;-71
2022/12/04 02:30:29;;;;;;;60.13;22.77;;;;;;;1.39;100.00;101635.34;5096599;28;20460;-71
2022/12/04 02:33:02;;;;;;;55.97;20.30;;;;;;;1.37;100.00;101645.41;5095082;28;22323;-71
2022/12/04 02:35:34;;;;;;;57.07;21.87;;;;;;;1.42;100.00;101650.97;5095345;28;20444;-71
2022/12/04 02:38:07;;;;;;;60.27;23.23;;;;;;;1.45;100.00;101645.16;5096185;28;20456;-71
2022/12/04 02:40:43;;;;;;;53.50;21.00;;;;;;;1.49;100.00;101643.72;5095110;28;20462;-71
2022/12/04 02:43:15;;;;;;;61.27;22.27;;;;;;;1.45;100.00;101642.50;5094762;28;20466;-71
2022/12/04 02:45:46;;;;;;;52.17;23.50;;;;;;;1.40;100.00;101634.31;5095658;28;20585;-71
2022/12/04 02:48:16;;;;;;;62.77;22.80;;;;;;;1.35;100.00;101634.97;5095108;28;20475;-71
2022/12/04 02:50:44;;;;;;;50.30;21.80;;;;;;;1.34;100.00;101629.84;5095496;28;20544;-71
2022/12/04 02:53:14;;;;;;;60.10;24.13;;;;;;;1.33;100.00;101630.84;5095985;28;20522;-71
2022/12/04 02:55:44;;;;;;;60.87;23.93;;;;;;;1.28;100.00;101631.50;5094646;28;20456;-71
2022/12/04 02:58:15;;;;;;;50.80;21.83;;;;;;;1.27;100.00;101619.19;5095832;28;20448;-71
2022/12/04 03:00:45;;;;;;;56.40;21.17;;;;;;;1.34;100.00;101620.00;5094702;28;20558;-71
2022/12/04 03:03:16;;;;;;;63.17;21.50;;;;;;;1.32;100.00;101621.22;5095825;28;20528;-72
2022/12/04 03:05:50;;;;;;;62.77;22.30;;;;;;;1.23;100.00;101616.13;5094714;28;20470;-72
2022/12/04 03:08:21;;;;;;;61.40;25.40;;;;;;;1.30;100.00;101624.13;5094572;28;20486;-71
2022/12/04 03:10:54;;;;;;;73.07;25.43;;;;;;;1.34;100.00;101624.50;5090631;28;20475;-71
2022/12/04 03:13:26;;;;;;;68.90;22.77;;;;;;;1.31;100.00;101625.75;5095278;28;20949;-71
2022/12/04 03:15:57;;;;;;;59.13;22.30;;;;;;;1.25;100.00;101623.94;5094621;28;20475;-71
2022/12/04 03:18:28;;;;;;;50.93;20.87;;;;;;;1.23;100.00;101617.97;5095093;28;20500;-71
2022/12/04 03:21:01;;;;;;;50.27;20.17;;;;;;;1.15;100.00;101621.75;5094082;28;20448;-71
2022/12/04 03:23:32;;;;;;;57.83;21.80;;;;;;;1.07;100.00;101608.63;5094466;28;20463;-71
2022/12/04 03:26:03;;;;;;;57.37;21.43;;;;;;;1.09;100.00;101614.56;5094311;28;20551;-71
2022/12/04 03:28:35;;;;;;;61.30;23.20;;;;;;;1.14;100.00;101604.06;5095243;28;20463;-71
2022/12/04 03:31:06;;;;;;;72.43;24.43;;;;;;;1.17;100.00;101600.16;5094286;28;20453;-71
2022/12/04 03:33:40;;;;;;;73.07;25.53;;;;;;;1.08;100.00;101604.94;5094984;28;20930;-71
2022/12/04 03:36:13;;;;;;;51.83;20.50;;;;;;;1.04;100.00;101606.38;5093818;28;20979;-71
2022/12/04 03:38:47;;;;;;;47.37;20.67;;;;;;;1.00;100.00;101607.84;5095141;28;20463;-71
2022/12/04 03:41:20;;;;;;;55.37;23.27;;;;;;;1.05;100.00;101616.00;5093717;28;20969;-71
2022/12/04 03:43:53;;;;;;;63.60;23.23;;;;;;;1.08;100.00;101612.94;5095100;28;20465;-71
2022/12/04 03:46:27;;;;;;;63.17;22.47;;;;;;;1.12;100.00;101608.81;5093464;28;21063;-71
2022/12/04 03:48:59;;;;;;;51.73;21.00;;;;;;;1.15;100.00;101616.41;5095001;28;20421;-71
2022/12/04 03:51:32;;;;;;;70.53;22.57;;;;;;;1.14;100.00;101620.06;5093745;28;20452;-71
2022/12/04 03:54:05;;;;;;;44.53;20.17;;;;;;;1.20;100.00;101616.56;5094376;28;20432;-71
2022/12/04 03:56:36;;;;;;;62.60;21.80;;;;;;;1.21;100.00;101612.06;5093878;28;20555;-71
2022/12/04 03:59:08;;;;;;;54.90;22.67;;;;;;;1.16;100.00;101611.88;5094410;28;20950;-71
2022/12/04 04:01:39;;;;;;;63.13;20.97;;;;;;;1.17;100.00;101614.31;5093475;28;20465;-71
2022/12/04 04:04:11;;;;;;;61.03;23.00;;;;;;;1.19;100.00;101608.75;5094259;28;20427;-70
2022/12/04 04:06:42;;;;;;;55.93;21.73;;;;;;;1.15;100.00;101599.53;5093121;28;20493;-71
2022/12/04 04:09:12;;;;;;;68.63;23.90;;;;;;;1.19;100.00;101606.09;5094561;28;20794;-71
2022/12/04 04:11:45;;;;;;;75.23;23.77;;;;;;;1.21;100.00;101602.19;5093376;28;20491;-71
2022/12/04 04:25:36;;;;;;;66.17;21.83;;;;;;;1.26;100.00;101590.88;5093171;28;20475;-71
2022/12/04 04:28:02;;;;;;;61.43;22.70;;;;;;;1.27;100.00;101585.31;5092820;22;20588;-80
2022/12/04 04:30:34;;;;;;;59.03;23.17;;;;;;;1.31;100.00;101588.38;5074629;28;20572;-80
2022/12/04 04:33:11;;;;;;;59.13;23.00;;;;;;;1.29;100.00;101579.78;5075532;28;20534;-80
2022/12/04 04:35:44;;;;;;;61.30;22.40;;;;;;;1.33;100.00;101588.16;5062374;28;20454;-78
2022/12/04 04:38:16;;;;;;;66.37;25.50;;;;;;;1.38;100.00;101577.69;5055246;28;20522;-78
2022/12/04 04:40:50;;;;;;;73.27;23.57;;;;;;;1.39;100.00;101576.63;5069335;28;20564;-78
2022/12/04 04:43:24;;;;;;;64.63;22.30;;;;;;;1.47;100.00;101581.72;5062018;28;20548;-77
2022/12/04 04:45:57;;;;;;;57.50;24.10;;;;;;;1.52;100.00;101581.88;5054816;28;20569;-77
2022/12/04 04:48:29;;;;;;;57.73;23.47;;;;;;;1.48;100.00;101583.34;5068757;28;20452;-78
2022/12/04 04:50:56;;;;;;;51.30;22.30;;;;;;;1.51;100.00;101583.75;5074919;28;21121;-79
2022/12/04 04:53:28;;;;;;;65.93;23.97;;;;;;;1.59;100.00;101593.31;5073845;28;20599;-80
2022/12/04 04:55:55;;;;;;;63.00;22.87;;;;;;;1.60;100.00;101584.31;5074237;28;20432;-80
2022/12/04 04:58:22;;;;;;;71.57;23.00;;;;;;;1.62;100.00;101584.88;5073456;28;21131;-79
2022/12/04 05:00:57;;;;;;;68.63;22.67;;;;;;;1.60;100.00;101589.66;5072654;28;20514;-80
2022/12/04 05:03:24;;;;;;;70.53;22.60;;;;;;;1.59;100.00;101593.31;5062709;28;20540;-80
2022/12/04 05:05:51;;;;;;;72.90;24.50;;;;;;;1.64;100.00;101592.66;5072134;28;20580;-80
2022/12/04 05:08:17;;;;;;;64.03;24.53;;;;;;;1.69;100.00;101591.00;5073661;28;20559;-80
2022/12/04 05:10:44;;;;;;;58.70;20.93;;;;;;;1.64;100.00;101601.53;5074067;28;20563;-81
2022/12/04 05:13:12;;;;;;;62.77;23.63;;;;;;;1.62;100.00;101594.75;5075051;28;20468;-80
2022/12/04 05:15:38;;;;;;;57.10;22.40;;;;;;;1.57;100.00;101597.25;5073961;28;20532;-80
2022/12/04 05:18:07;;;;;;;57.43;23.20;;;;;;;1.56;100.00;101604.44;5073621;28;20477;-80
2022/12/04 05:20:32;;;;;;;59.10;22.03;;;;;;;1.62;100.00;101598.25;5053979;28;20903;-80
2022/12/04 05:22:59;;;;;;;63.33;23.27;;;;;;;1.60;100.00;101596.84;5054334;28;20489;-80
2022/12/04 05:25:26;;;;;;;61.13;22.90;;;;;;;1.58;100.00;101599.69;5073468;28;20291;-80
2022/12/04 05:27:52;;;;;;;62.33;23.67;;;;;;;1.57;100.00;101592.72;5074043;28;20485;-80
2022/12/04 05:30:19;;;;;;;57.17;22.77;;;;;;;1.54;100.00;101590.47;5072949;28;21022;-80
2022/12/04 05:32:46;;;;;;;50.30;20.27;;;;;;;1.61;100.00;101596.59;5074018;28;21005;-80
2022/12/04 05:35:14;;;;;;;62.73;22.80;;;;;;;1.65;100.00;101594.34;5073403;28;20590;-80
2022/12/04 05:37:41;;;;;;;55.17;20.80;;;;;;;1.65;100.00;101592.47;5074380;28;20460;-80
2022/12/04 05:40:09;;;;;;;58.60;21.60;;;;;;;1.56;100.00;101592.97;5073651;28;20552;-80
2022/12/04 05:42:35;;;;;;;60.50;22.87;;;;;;;1.61;100.00;101588.59;5073771;28;20532;-80
2022/12/04 05:45:02;;;;;;;71.10;23.27;;;;;;;1.60;100.00;101597.66;5070272;28;20552;-80
2022/12/04 05:47:29;;;;;;;67.43;22.20;;;;;;;1.65;100.00;101595.16;5073806;28;21115;-80
2022/12/04 05:49:55;;;;;;;78.73;24.90;;;;;;;1.67;100.00;101594.91;5072615;28;20911;-80
2022/12/04 05:52:23;;;;;;;57.00;21.97;;;;;;;1.69;100.00;101593.69;5073792;28;20477;-79
2022/12/04 05:54:50;;;;;;;61.30;21.17;;;;;;;1.68;100.00;101594.72;5064977;28;20526;-79
2022/12/04 05:57:16;;;;;;;62.80;20.87;;;;;;;1.71;100.00;101588.94;5056771;28;20496;-80
2022/12/04 05:59:43;;;;;;;74.97;24.80;;;;;;;1.77;100.00;101585.41;5062393;28;20457;-80
2022/12/04 06:02:10;;;;;;;57.83;23.87;;;;;;;1.74;100.00;101585.81;5073676;28;21060;-80
2022/12/04 06:04:37;;;;;;;65.07;21.10;;;;;;;1.71;100.00;101580.09;5074176;28;20948;-79
2022/12/04 06:07:03;;;;;;;73.13;24.83;;;;;;;1.71;100.00;101585.44;5073912;28;20928;-79
2022/12/04 06:09:31;;;;;;;65.47;21.93;;;;;;;1.76;100.00;101586.41;5068182;28;20549;-79
2022/12/04 06:11:58;;;;;;;62.07;22.90;;;;;;;1.78;100.00;101580.88;5054123;28;20545;-79
2022/12/04 06:14:25;;;;;;;53.07;20.97;;;;;;;1.77;100.00;101582.72;5054527;28;20549;-79
2022/12/04 06:16:52;;;;;;;49.10;19.10;;;;;;;1.80;100.00;101588.66;5054188;28;20882;-80
2022/12/04 06:19:20;;;;;;;63.97;25.60;;;;;;;1.80;100.00;101580.66;5062198;28;20528;-79
2022/12/04 06:21:48;;;;;;;58.80;24.40;;;;;;;1.82;100.00;101573.25;5078253;28;20465;-80
2022/12/04 06:24:17;;;;;;;57.67;20.53;;;;;;;1.76;100.00;101574.91;5078009;28;20535;-80
2022/12/04 06:26:46;;;;;;;63.37;21.60;;;;;;;1.74;100.00;101591.16;5078121;28;20584;-79
2022/12/04 06:29:14;;;;;;;63.63;24.70;;;;;;;1.80;100.00;101591.34;5077352;28;21034;-79
2022/12/04 06:31:41;;;;;;;60.83;21.17;;;;;;;1.79;100.00;101589.69;5076719;28;20468;-79
2022/12/04 06:34:09;;;;;;;59.17;23.03;;;;;;;1.78;100.00;101583.53;5076205;28;20455;-79
2022/12/04 06:36:36;;;;;;;62.33;22.97;;;;;;;1.82;100.00;101592.75;5076458;28;20442;-79
2022/12/04 06:39:03;;;;;;;46.40;19.80;;;;;;;1.72;100.00;101595.09;5077045;28;20492;-79
2022/12/04 06:41:30;;;;;;;57.20;21.40;;;;;;;1.76;100.00;101583.75;5076451;28;20552;-79
2022/12/04 06:43:58;;;;;;;60.53;23.10;;;;;;;1.80;100.00;101591.34;5075473;28;20546;-79
2022/12/04 06:46:26;;;;;;;68.07;25.33;;;;;;;1.79;100.00;101585.19;5076347;28;21088;-79
2022/12/04 06:48:55;;;;;;;71.30;22.50;;;;;;;1.85;100.00;101589.63;5076308;28;20884;-79
2022/12/04 06:51:23;;;;;;;59.13;20.93;;;;;;;1.89;100.00;101590.84;5076048;28;20496;-79
2022/12/04 06:53:50;;;;;;;56.53;21.27;;;;;;;1.80;100.00;101586.00;5076341;28;20789;-79
2022/12/04 06:56:19;;;;;;;68.00;21.20;;;;;;;1.75;100.00;101600.81;5071461;28;20529;-79
2022/12/04 06:58:47;;;;;;;54.20;21.40;;;;;;;1.71;100.00;101598.78;5064419;28;20459;-79
2022/12/04 07:01:17;;;;;;;61.37;21.27;;;;;;;1.80;100.00;101588.66;5066730;28;20577;-79
2022/12/04 07:03:45;;;;;;;59.43;21.07;;;;;;;1.79;100.00;101589.69;5076422;28;20450;-78
2022/12/04 07:06:14;;;;;;;63.50;21.37;;;;;;;1.86;100.00;101590.44;5077967;28;20520;-78
2022/12/04 07:08:41;;;;;;;60.07;22.57;;;;;;;1.80;100.00;101580.66;5078063;28;20520;-78
2022/12/04 07:11:08;;;;;;;64.50;22.30;;;;;;;1.74;100.00;101580.50;5077340;28;20560;-78
2022/12/04 07:13:35;;;;;;;51.47;22.30;;;;;;;1.80;100.00;101589.47;5074894;28;20544;-78
2022/12/04 07:16:03;;;;;;;66.43;20.43;;;;;;;1.85;100.00;101591.50;5066368;28;20580;-79
2022/12/04 07:18:32;;;;;;;50.17;21.93;;;;;;;1.81;100.00;101590.28;5077221;28;20855;-79
2022/12/04 07:20:59;;;;;;;62.17;21.07;;;;;;;1.87;100.00;101586.75;5063056;28;20679;-79
2022/12/04 07:23:26;;;;;;;62.17;20.47;;;;;;;1.84;100.00;101581.84;5077162;28;20484;-78
2022/12/04 07:25:53;;;;;;;55.43;20.13;;;;;;;1.88;100.00;101593.75;5076437;28;20553;-79
2022/12/04 07:28:19;;;;;;;64.50;22.00;;;;;;;1.83;100.00;101589.06;5076211;28;20493;-78
2022/12/04 07:30:46;;;;;;;55.17;20.33;;;;;;;1.83;100.00;101596.25;5075682;28;20488;-78
2022/12/04 07:33:13;;;;;;;48.07;19.63;;;;;;;1.71;100.00;101596.94;5062054;28;20493;-78
2022/12/04 07:35:41;;;;;;;59.40;21.60;;;;;;;1.82;100.00;101598.09;5055461;28;20438;-77
2022/12/04 07:38:08;;;;;;;55.57;23.07;;;;;;;1.83;100.00;101597.06;5055703;28;20537;-80
2022/12/04 07:40:34;;;;;;;72.93;23.23;;;;;;;1.86;100.00;101596.63;5055464;28;20465;-80
2022/12/04 07:43:01;;;;;;;56.17;22.90;;;;;;;1.82;100.00;101594.63;5055943;28;20537;-77
2022/12/04 07:45:27;;;;;;;50.30;21.87;;;;;;;1.84;100.00;101600.53;5056644;28;20532;-78
2022/12/04 07:47:54;;;;;;;59.43;21.63;;;;;;;1.83;100.00;101607.75;5056369;28;20669;-78
2022/12/04 07:50:20;;;;;;;54.70;22.07;;;;;;;1.89;100.00;101606.06;5056559;28;20533;-78
2022/12/04 07:52:48;;;;;;;53.20;21.73;;;;;;;1.96;100.00;101612.16;5055882;28;20541;-79
2022/12/04 07:55:15;;;;;;;61.43;21.27;;;;;;;1.95;100.00;101613.22;5054986;28;20883;-80
2022/12/04 07:57:42;;;;;;;61.70;22.67;;;;;;;1.97;100.00;101613.78;5055331;28;20537;-80
2022/12/04 08:00:10;;;;;;;66.23;24.47;;;;;;;1.93;100.00;101607.25;5054695;28;21031;-79
2022/12/04 08:02:37;;;;;;;45.23;19.40;;;;;;;1.92;100.00;101606.44;5055228;28;20461;-79
2022/12/04 08:05:03;;;;;;;50.63;20.13;;;;;;;1.91;100.00;101609.34;5055314;28;20525;-79
2022/12/04 08:07:30;;;;;;;60.17;20.57;;;;;;;1.97;100.00;101611.13;5055063;28;20572;-79
2022/12/04 08:09:58;;;;;;;51.57;22.00;;;;;;;1.88;100.00;101615.09;5055356;28;21014;-80
2022/12/04 08:12:25;;;;;;;48.83;20.00;;;;;;;1.89;100.00;101611.41;5054944;28;20885;-80
2022/12/04 08:14:51;;;;;;;60.77;21.77;;;;;;;1.94;100.00;101608.88;5054955;28;20529;-80
2022/12/04 08:17:18;;;;;;;69.83;20.50;;;;;;;1.96;100.00;101607.63;5055080;28;20537;-79
2022/12/04 08:19:45;;;;;;;52.33;23.47;;;;;;;1.92;100.00;101610.97;5056152;28;20446;-79
2022/12/04 08:22:12;;;;;;;60.87;21.60;;;;;;;1.96;100.00;101618.31;5055793;28;20466;-79
2022/12/04 08:24:39;;;;;;;54.77;20.30;;;;;;;1.92;100.00;101610.97;5055599;28;20529;-79
2022/12/04 08:27:07;;;;;;;58.13;22.37;;;;;;;1.99;100.00;101625.06;5054891;28;20564;-78
2022/12/04 08:29:33;;;;;;;52.63;20.97;;;;;;;2.07;100.00;101614.13;5055739;28;20458;-79
2022/12/04 08:32:00;;;;;;;67.77;20.90;;;;;;;2.03;100.00;101620.94;5055639;28;20553;-79
2022/12/04 08:34:27;;;;;;;62.23;20.80;;;;;;;2.05;100.00;101624.22;5054454;28;20566;-80
2022/12/04 08:36:53;;;;;;;64.20;20.50;;;;;;;2.10;100.00;101613.69;5056234;28;20526;-78
2022/12/04 08:39:20;;;;;;;61.77;19.23;;;;;;;2.13;100.00;101610.59;5066714;28;21069;-78
2022/12/04 08:41:47;;;;;;;57.43;20.40;;;;;;;2.19;100.00;101615.03;5075196;28;21036;-79
2022/12/04 08:44:15;;;;;;;53.20;20.40;;;;;;;2.18;100.00;101621.44;5057053;28;20481;-78
2022/12/04 08:46:41;;;;;;;55.10;21.87;;;;;;;2.20;100.00;101619.34;5054621;28;20538;-78
2022/12/04 08:49:08;;;;;;;54.10;22.47;;;;;;;2.16;100.00;101611.97;5072911;28;20547;-78
2022/12/04 08:51:34;;;;;;;66.80;22.70;;;;;;;2.14;100.00;101619.41;5074873;28;20513;-78
2022/12/04 08:54:04;;;;;;;61.47;21.93;;;;;;;2.20;100.00;101618.53;5073623;28;20545;-77
2022/12/04 08:56:31;;;;;;;53.37;19.60;;;;;;;2.25;100.00;101614.16;5073924;28;20959;-79
2022/12/04 08:58:59;;;;;;;60.77;23.10;;;;;;;2.19;100.00;101612.38;5074894;28;20476;-77
2022/12/04 09:01:28;;;;;;;60.33;22.87;;;;;;;2.25;100.00;101608.81;5073198;28;21065;-77
2022/12/04 09:03:56;;;;;;;60.67;20.00;;;;;;;2.24;100.00;101609.84;5073740;28;20437;-77
2022/12/04 09:06:23;;;;;;;53.07;21.10;;;;;;;2.11;100.00;101601.13;5073288;28;20548;-77
2022/12/04 09:08:53;;;;;;;55.57;21.10;;;;;;;2.17;100.00;101598.41;5073196;28;20481;-77
2022/12/04 09:11:23;;;;;;;71.27;22.23;;;;;;;2.18;100.00;101610.75;5073403;28;20473;-77
2022/12/04 09:13:50;;;;;;;54.33;19.50;;;;;;;2.16;100.00;101607.44;5072987;28;20603;-77
2022/12/04 09:16:21;;;;;;;62.43;21.87;;;;;;;2.25;100.00;101605.31;5074065;28;20529;-77
2022/12/04 09:18:49;;;;;;;63.20;23.00;;;;;;;2.25;100.00;101610.66;5073160;28;20532;-77
2022/12/04 09:21:18;;;;;;;58.50;21.00;;;;;;;2.21;100.00;101609.47;5074791;28;20962;-78
2022/12/04 09:23:46;;;;;;;56.30;23.43;;;;;;;2.19;100.00;101616.91;5076331;28;20535;-78
2022/12/04 09:26:20;;;;;;;58.30;21.90;;;;;;;2.25;100.00;101624.84;5077059;28;20520;-79
2022/12/04 09:28:47;;;;;;;69.47;21.23;;;;;;;2.24;100.00;101614.38;5075791;28;20517;-79
2022/12/04 09:31:13;;;;;;;54.83;20.53;;;;;;;2.26;100.00;101613.13;5076911;28;20552;-78
2022/12/04 09:33:40;;;;;;;58.93;21.70;;;;;;;2.30;100.00;101607.31;5073383;28;20545;-79
2022/12/04 09:36:14;;;;;;;49.67;22.47;;;;;;;2.30;100.00;101608.13;5076897;28;20583;-78
2022/12/04 09:38:41;;;;;;;46.87;17.77;;;;;;;2.31;100.00;101606.31;5075787;28;20965;-79
2022/12/04 09:41:22;;;;;;;64.47;21.97;;;;;;;2.33;100.00;101601.53;5077477;28;20560;-78
2022/12/04 09:43:54;;;;;;;50.20;17.90;;;;;;;2.34;100.00;101603.19;5076432;28;20528;-79
2022/12/04 09:46:29;;;;;;;60.27;22.37;;;;;;;2.32;100.00;101610.63;5077662;28;20461;-79
2022/12/04 09:48:59;;;;;;;54.17;20.70;;;;;;;2.31;100.00;101614.34;5075389;28;20551;-79
2022/12/04 09:51:28;;;;;;;44.23;18.77;;;;;;;2.33;100.00;101612.25;5075113;28;20556;-79
2022/12/04 09:53:59;;;;;;;60.27;21.20;;;;;;;2.31;100.00;101603.63;5079138;28;20461;-79
2022/12/04 09:56:29;;;;;;;65.00;22.30;;;;;;;2.34;100.00;101603.19;5080631;28;20489;-79
2022/12/04 09:59:03;;;;;;;50.43;20.07;;;;;;;2.41;100.00;101594.06;5077808;28;20520;-77
2022/12/04 10:01:39;;;;;;;79.87;24.20;;;;;;;2.44;100.00;101606.19;5076887;28;20552;-76
2022/12/04 10:04:06;;;;;;;67.97;20.97;;;;;;;2.43;100.00;101601.84;5076956;28;20482;-77
2022/12/04 10:06:41;;;;;;;56.23;22.93;;;;;;;2.40;100.00;101594.28;5076837;28;20520;-77
2022/12/04 10:09:13;;;;;;;50.30;22.07;;;;;;;2.45;100.00;101581.06;5076804;28;20552;-79
2022/12/04 10:11:52;;;;;;;74.13;22.80;;;;;;;2.52;100.00;101588.00;5078000;28;20537;-79
2022/12/04 10:14:43;;;;;;;50.37;21.60;;;;;;;2.49;100.00;101576.91;5078220;28;20525;-79
2022/12/04 10:17:27;;;;;;;51.03;20.37;;;;;;;2.55;100.00;101581.34;5078940;28;20583;-79
2022/12/04 10:20:03;;;;;;;57.90;21.20;;;;;;;2.46;100.00;101572.00;5079415;28;20512;-79
2022/12/04 10:22:44;;;;;;;69.57;23.47;;;;;;;2.56;100.00;101577.63;5079399;28;20425;-79
2022/12/04 10:25:15;;;;;;;60.83;22.67;;;;;;;2.50;100.00;101563.31;5080408;28;20457;-79
2022/12/04 10:27:49;;;;;;;51.23;18.60;;;;;;;2.52;100.00;101561.25;5081396;28;20542;-79
2022/12/04 10:30:19;;;;;;;47.80;19.13;;;;;;;2.51;100.00;101548.09;5080703;28;20504;-79
2022/12/04 10:32:48;;;;;;;56.83;19.40;;;;;;;2.52;100.00;101552.38;5080884;28;20484;-79
2022/12/04 10:35:21;;;;;;;63.43;23.17;;;;;;;2.57;100.00;101546.34;5081249;28;20863;-79
2022/12/04 10:37:55;;;;;;;53.20;20.47;;;;;;;2.57;100.00;101547.22;5108852;22;20488;-69
2022/12/04 10:40:26;;;;;;;56.67;19.30;;;;;;;2.60;100.00;101554.75;5096153;28;20971;-70
2022/12/04 10:42:58;;;;;;;52.93;21.73;;;;;;;2.63;100.00;101548.97;5096224;28;20452;-68
2022/12/04 10:45:24;;;;;;;66.53;20.93;;;;;;;2.53;100.00;101554.03;5095984;28;20457;-69
2022/12/04 10:47:52;;;;;;;49.47;20.37;;;;;;;2.48;100.00;101553.91;5095994;28;20480;-70
2022/12/04 10:50:21;;;;;;;52.20;21.33;;;;;;;2.52;100.00;101557.72;5096110;28;20529;-69
2022/12/04 10:52:48;;;;;;;74.37;21.97;;;;;;;2.53;100.00;101551.38;5095697;28;20532;-69
2022/12/04 10:55:27;;;;;;;60.47;21.27;;;;;;;2.48;100.00;101548.56;5095665;28;20450;-70
2022/12/04 10:57:53;;;;;;;42.60;18.57;;;;;;;2.58;100.00;101562.19;5095666;28;20452;-70
2022/12/04 11:00:26;;;;;;;59.53;21.80;;;;;;;2.65;100.00;101556.75;5095889;28;20462;-70
2022/12/04 11:02:55;;;;;;;60.30;22.70;;;;;;;2.59;100.00;101552.31;5095623;28;20449;-70
2022/12/04 11:05:28;;;;;;;55.87;19.90;;;;;;;2.67;100.00;101555.50;5094312;28;20448;-70
2022/12/04 11:07:56;;;;;;;47.37;20.00;;;;;;;2.66;100.00;101543.19;5095688;28;20924;-70
2022/12/04 11:10:31;;;;;;;54.30;19.17;;;;;;;2.65;100.00;101535.38;5095350;28;20445;-70
2022/12/04 11:13:00;;;;;;;59.87;21.30;;;;;;;2.66;100.00;101527.13;5095664;28;20424;-69
2022/12/04 11:15:27;;;;;;;66.97;22.97;;;;;;;2.72;100.00;101531.56;5095249;28;20444;-69
2022/12/04 11:17:54;;;;;;;50.43;19.73;;;;;;;2.81;100.00;101531.25;5095523;28;20521;-69
2022/12/04 11:20:22;;;;;;;54.43;21.90;;;;;;;2.80;100.00;101527.78;5095748;28;20468;-70
2022/12/04 11:22:52;;;;;;;49.50;21.00;;;;;;;2.73;100.00;101521.69;5095127;28;20464;-69
2022/12/04 11:25:21;;;;;;;51.67;20.17;;;;;;;2.70;100.00;101533.66;5095683;28;20512;-70
2022/12/04 11:27:53;;;;;;;58.37;20.90;;;;;;;2.71;100.00;101537.16;5095262;28;20498;-69
2022/12/04 11:30:24;;;;;;;58.17;21.60;;;;;;;2.75;100.00;101536.47;5095285;28;20492;-69